Big Bend National Park, TX

8:40 AM CDT on April 27, 2015 (GMT -0500)
Big Bend - Chisos View | | Change Station
CLOSE
Current Station
Personal Weather Station
Location: Alpine, TX
Elevation: 3497 ft
Nearby Weather Stations

Elev 3497 ft 29.47 °N, 103.38 °W | Updated 6 seconds ago

Clear
Clear
60.0 °F
Feels Like 60.0 °F
N
15.0
Wind Variable Wind from WNW
Gusts 15.0 mph

Today
High -- | Low -- °F
--% Chance of Precip.
Yesterday
High -- | Low -- °F
Precip. -- in
7:14 AM 8:26 PM
Waxing Gibbous, 65% visible
Pressure 29.87 in
Visibility 10.0 miles
Clouds Clear
Dew Point 32 °F
Humidity 34%
Rainfall 0.00 in
Snow Depth Not available.
UV 0 out of 12
Pollen 8.00 out of 12
Air Quality Not available.
Flu Activity Local Activity
METAR KPRS 271255Z AUTO 24003KT 10SM CLR 14/00 A2987 RMK AO2 T01350002

More Conditions Fewer Conditions

Pressure 29.87 in
Visibility 10.0 miles
Clouds Clear
Dew Point 32 °F
Humidity 34%
Rainfall 0.00 in
Snow Depth Not available.
UV 0 out of 12
Pollen 8.00 out of 12
Air Quality Not available.
Flu Activity Local Activity
METAR KPRS 271255Z AUTO 24003KT 10SM CLR 14/00 A2987 RMK AO2 T01350002

More Conditions Fewer Conditions

10-Day Weather Forecast

Almanac

Astronomy

Apr. 27, 2015 Rise Set
Actual Time
Civil Twilight
Nautical Twilight
Astronomical Twilight
Moon
Length of Visible Light
Length of Day
Tomorrow will be .
, % of the Moon is Illuminated

Today's Extremes

State Highs State Lows

Community

WunderPhotos

Upload Photos

1,817,309 photos uploaded!

WunderBlogs® & News

Nearby

Air Quality

  Air Quality AQ Index Pollutant
Not available.

Snow Depth

Station Depth Elevation

Earthquake Activity

City Distance Mag. Time & Date
Minimum magnitude displayed is 2.5.

Coastal Water Temperatures

Place Temperature

Stations

Nearby Weather Stations

Station Location Temp. Windchill Dew Point Humidity Wind Precip. Elev Updated Type